sensor_id;sensor_type;location;lat;lon;timestamp;pressure;altitude;pressure_sealevel;temperature;humidity
64886;BME280;51514;52.206;5.114;2023-04-05T00:00:28;102625.34;;;5.37;65.03
64886;BME280;51514;52.206;5.114;2023-04-05T00:02:55;102635.31;;;5.34;64.82
64886;BME280;51514;52.206;5.114;2023-04-05T00:05:22;102623.84;;;5.32;64.97
64886;BME280;51514;52.206;5.114;2023-04-05T00:07:57;102621.09;;;5.33;64.77
64886;BME280;51514;52.206;5.114;2023-04-05T00:10:25;102621.00;;;5.35;64.60
64886;BME280;51514;52.206;5.114;2023-04-05T00:12:50;102617.47;;;5.34;64.54
64886;BME280;51514;52.206;5.114;2023-04-05T00:15:16;102614.78;;;5.34;64.60
64886;BME280;51514;52.206;5.114;2023-04-05T00:17:42;102616.69;;;5.32;64.84
64886;BME280;51514;52.206;5.114;2023-04-05T00:20:08;102614.19;;;5.29;64.82
64886;BME280;51514;52.206;5.114;2023-04-05T00:22:37;102615.13;;;5.28;64.78
64886;BME280;51514;52.206;5.114;2023-04-05T00:25:03;102617.44;;;5.19;65.11
64886;BME280;51514;52.206;5.114;2023-04-05T00:27:29;102600.53;;;5.18;65.07
64886;BME280;51514;52.206;5.114;2023-04-05T00:29:54;102613.09;;;5.16;64.98
64886;BME280;51514;52.206;5.114;2023-04-05T00:32:20;102606.81;;;5.17;65.03
64886;BME280;51514;52.206;5.114;2023-04-05T00:34:45;102599.47;;;5.21;65.02
64886;BME280;51514;52.206;5.114;2023-04-05T00:37:11;102607.69;;;5.18;65.36
64886;BME280;51514;52.206;5.114;2023-04-05T00:39:38;102590.47;;;5.06;64.98
64886;BME280;51514;52.206;5.114;2023-04-05T00:42:04;102606.50;;;5.06;65.37
64886;BME280;51514;52.206;5.114;2023-04-05T00:44:31;102597.56;;;5.07;64.73
64886;BME280;51514;52.206;5.114;2023-04-05T00:47:03;102601.25;;;5.04;65.24
64886;BME280;51514;52.206;5.114;2023-04-05T00:49:29;102599.59;;;5.02;65.13
64886;BME280;51514;52.206;5.114;2023-04-05T00:51:56;102598.31;;;5.09;64.95
64886;BME280;51514;52.206;5.114;2023-04-05T00:54:23;102596.75;;;5.05;65.02
64886;BME280;51514;52.206;5.114;2023-04-05T00:56:49;102584.19;;;5.07;64.65
64886;BME280;51514;52.206;5.114;2023-04-05T00:59:18;102585.13;;;5.06;64.73
64886;BME280;51514;52.206;5.114;2023-04-05T01:01:43;102583.38;;;5.05;65.05
64886;BME280;51514;52.206;5.114;2023-04-05T01:04:24;102578.84;;;5.07;65.02
64886;BME280;51514;52.206;5.114;2023-04-05T01:07:06;102582.44;;;5.06;65.26
64886;BME280;51514;52.206;5.114;2023-04-05T01:10:05;102583.06;;;5.11;64.98
64886;BME280;51514;52.206;5.114;2023-04-05T01:12:34;102577.56;;;5.14;64.74
64886;BME280;51514;52.206;5.114;2023-04-05T01:15:00;102571.13;;;5.18;64.92
64886;BME280;51514;52.206;5.114;2023-04-05T01:17:30;102580.69;;;5.22;64.48
64886;BME280;51514;52.206;5.114;2023-04-05T01:20:02;102581.31;;;5.27;64.69
64886;BME280;51514;52.206;5.114;2023-04-05T01:30:38;102568.72;;;5.29;64.14
64886;BME280;51514;52.206;5.114;2023-04-05T01:38:17;102564.75;;;5.36;64.31
64886;BME280;51514;52.206;5.114;2023-04-05T01:40:43;102560.28;;;5.37;64.37
64886;BME280;51514;52.206;5.114;2023-04-05T01:43:13;102556.66;;;5.38;64.55
64886;BME280;51514;52.206;5.114;2023-04-05T01:45:40;102552.50;;;5.32;64.39
64886;BME280;51514;52.206;5.114;2023-04-05T01:48:05;102549.03;;;5.30;64.29
64886;BME280;51514;52.206;5.114;2023-04-05T01:50:31;102551.69;;;5.30;64.77
64886;BME280;51514;52.206;5.114;2023-04-05T01:52:56;102550.16;;;5.26;64.61
64886;BME280;51514;52.206;5.114;2023-04-05T01:55:21;102548.19;;;5.30;64.97
64886;BME280;51514;52.206;5.114;2023-04-05T01:57:47;102547.41;;;5.28;64.74
64886;BME280;51514;52.206;5.114;2023-04-05T02:00:12;102551.81;;;5.29;64.44
64886;BME280;51514;52.206;5.114;2023-04-05T02:02:38;102544.03;;;5.24;64.36
64886;BME280;51514;52.206;5.114;2023-04-05T02:05:03;102541.44;;;5.23;64.59
64886;BME280;51514;52.206;5.114;2023-04-05T02:07:29;102543.25;;;5.22;64.83
64886;BME280;51514;52.206;5.114;2023-04-05T02:09:54;102537.91;;;5.22;64.83
64886;BME280;51514;52.206;5.114;2023-04-05T02:12:20;102544.38;;;5.18;65.36
64886;BME280;51514;52.206;5.114;2023-04-05T02:14:46;102541.94;;;5.13;65.29
64886;BME280;51514;52.206;5.114;2023-04-05T02:17:12;102537.59;;;5.11;65.37
64886;BME280;51514;52.206;5.114;2023-04-05T02:19:37;102524.31;;;5.09;65.25
64886;BME280;51514;52.206;5.114;2023-04-05T02:22:06;102522.78;;;5.05;65.10
64886;BME280;51514;52.206;5.114;2023-04-05T02:24:32;102518.69;;;4.98;65.57
64886;BME280;51514;52.206;5.114;2023-04-05T02:26:57;102517.81;;;4.98;65.76
64886;BME280;51514;52.206;5.114;2023-04-05T02:29:22;102514.47;;;4.94;65.86
64886;BME280;51514;52.206;5.114;2023-04-05T02:31:48;102519.03;;;4.92;65.93
64886;BME280;51514;52.206;5.114;2023-04-05T02:34:13;102517.38;;;4.90;65.87
64886;BME280;51514;52.206;5.114;2023-04-05T02:36:38;102514.25;;;4.82;65.86
64886;BME280;51514;52.206;5.114;2023-04-05T02:39:06;102510.78;;;4.80;66.21
64886;BME280;51514;52.206;5.114;2023-04-05T02:41:31;102505.59;;;4.76;66.60
64886;BME280;51514;52.206;5.114;2023-04-05T02:43:57;102508.25;;;4.76;66.33
64886;BME280;51514;52.206;5.114;2023-04-05T02:46:24;102504.03;;;4.72;66.70
64886;BME280;51514;52.206;5.114;2023-04-05T02:48:50;102501.81;;;4.81;66.50
64886;BME280;51514;52.206;5.114;2023-04-05T02:51:16;102505.81;;;4.89;66.62
64886;BME280;51514;52.206;5.114;2023-04-05T02:53:41;102508.41;;;4.91;66.53
64886;BME280;51514;52.206;5.114;2023-04-05T02:56:09;102501.66;;;4.84;66.10
64886;BME280;51514;52.206;5.114;2023-04-05T02:58:36;102499.94;;;4.83;66.01
64886;BME280;51514;52.206;5.114;2023-04-05T03:01:01;102492.94;;;4.80;66.48
64886;BME280;51514;52.206;5.114;2023-04-05T03:03:31;102496.03;;;4.72;66.50
64886;BME280;51514;52.206;5.114;2023-04-05T03:06:01;102490.59;;;4.74;66.13
64886;BME280;51514;52.206;5.114;2023-04-05T03:08:35;102494.22;;;4.73;66.76
64886;BME280;51514;52.206;5.114;2023-04-05T03:11:02;102486.59;;;4.65;66.60
64886;BME280;51514;52.206;5.114;2023-04-05T03:13:27;102491.94;;;4.65;66.32
64886;BME280;51514;52.206;5.114;2023-04-05T03:15:53;102479.34;;;4.67;66.24
64886;BME280;51514;52.206;5.114;2023-04-05T03:18:19;102485.34;;;4.72;66.44
64886;BME280;51514;52.206;5.114;2023-04-05T03:20:46;102482.81;;;4.69;65.70
64886;BME280;51514;52.206;5.114;2023-04-05T03:23:14;102490.69;;;4.72;66.61
64886;BME280;51514;52.206;5.114;2023-04-05T03:25:39;102480.84;;;4.73;65.57
64886;BME280;51514;52.206;5.114;2023-04-05T03:28:06;102479.06;;;4.73;66.28
64886;BME280;51514;52.206;5.114;2023-04-05T03:30:33;102479.84;;;4.75;66.22
64886;BME280;51514;52.206;5.114;2023-04-05T03:32:59;102477.25;;;4.74;65.77
64886;BME280;51514;52.206;5.114;2023-04-05T03:35:28;102466.63;;;4.72;65.71
64886;BME280;51514;52.206;5.114;2023-04-05T03:37:54;102465.84;;;4.70;65.84
64886;BME280;51514;52.206;5.114;2023-04-05T03:40:20;102473.22;;;4.65;66.17
64886;BME280;51514;52.206;5.114;2023-04-05T03:42:45;102477.09;;;4.60;65.68
64886;BME280;51514;52.206;5.114;2023-04-05T03:45:10;102473.50;;;4.61;66.63
64886;BME280;51514;52.206;5.114;2023-04-05T03:47:36;102473.34;;;4.64;66.61
64886;BME280;51514;52.206;5.114;2023-04-05T03:50:02;102475.22;;;4.62;66.34
64886;BME280;51514;52.206;5.114;2023-04-05T03:52:27;102469.81;;;4.63;66.20
64886;BME280;51514;52.206;5.114;2023-04-05T03:54:53;102478.75;;;4.62;65.98
64886;BME280;51514;52.206;5.114;2023-04-05T03:57:18;102476.31;;;4.58;66.22
64886;BME280;51514;52.206;5.114;2023-04-05T03:59:43;102476.38;;;4.56;66.49
64886;BME280;51514;52.206;5.114;2023-04-05T04:02:09;102484.47;;;4.55;66.49
64886;BME280;51514;52.206;5.114;2023-04-05T04:04:34;102479.38;;;4.50;66.37
64886;BME280;51514;52.206;5.114;2023-04-05T04:07:00;102483.16;;;4.46;66.63
64886;BME280;51514;52.206;5.114;2023-04-05T04:09:25;102483.22;;;4.45;66.58
64886;BME280;51514;52.206;5.114;2023-04-05T04:11:53;102480.66;;;4.43;66.72
64886;BME280;51514;52.206;5.114;2023-04-05T04:14:19;102487.88;;;4.41;66.06
64886;BME280;51514;52.206;5.114;2023-04-05T04:16:44;102479.81;;;4.43;66.60
64886;BME280;51514;52.206;5.114;2023-04-05T04:19:10;102482.63;;;4.39;65.76
64886;BME280;51514;52.206;5.114;2023-04-05T04:21:35;102479.09;;;4.39;66.21
64886;BME280;51514;52.206;5.114;2023-04-05T04:24:04;102478.22;;;4.38;66.43
64886;BME280;51514;52.206;5.114;2023-04-05T04:26:29;102481.81;;;4.37;65.83
64886;BME280;51514;52.206;5.114;2023-04-05T04:28:55;102474.03;;;4.33;66.10
64886;BME280;51514;52.206;5.114;2023-04-05T04:31:20;102478.44;;;4.34;66.07
64886;BME280;51514;52.206;5.114;2023-04-05T04:33:48;102480.34;;;4.32;66.09
64886;BME280;51514;52.206;5.114;2023-04-05T04:36:14;102471.53;;;4.30;66.90
64886;BME280;51514;52.206;5.114;2023-04-05T04:38:42;102474.38;;;4.27;66.60
64886;BME280;51514;52.206;5.114;2023-04-05T04:41:12;102470.03;;;4.24;66.34
64886;BME280;51514;52.206;5.114;2023-04-05T04:43:38;102477.81;;;4.29;66.46
64886;BME280;51514;52.206;5.114;2023-04-05T04:46:08;102482.22;;;4.30;66.28
64886;BME280;51514;52.206;5.114;2023-04-05T04:48:40;102475.22;;;4.27;66.29
64886;BME280;51514;52.206;5.114;2023-04-05T04:51:06;102472.78;;;4.23;65.67
64886;BME280;51514;52.206;5.114;2023-04-05T04:53:31;102467.78;;;4.17;65.83
64886;BME280;51514;52.206;5.114;2023-04-05T04:55:57;102464.31;;;4.15;66.61
64886;BME280;51514;52.206;5.114;2023-04-05T04:58:22;102465.16;;;4.15;66.79
64886;BME280;51514;52.206;5.114;2023-04-05T05:00:47;102465.31;;;4.12;65.92
64886;BME280;51514;52.206;5.114;2023-04-05T05:03:13;102456.69;;;4.07;65.96
64886;BME280;51514;52.206;5.114;2023-04-05T05:05:42;102472.78;;;4.06;66.58
64886;BME280;51514;52.206;5.114;2023-04-05T05:08:08;102467.31;;;4.09;67.13
64886;BME280;51514;52.206;5.114;2023-04-05T05:10:33;102457.41;;;4.11;67.30
64886;BME280;51514;52.206;5.114;2023-04-05T05:12:58;102458.19;;;4.13;67.11
64886;BME280;51514;52.206;5.114;2023-04-05T05:15:24;102467.91;;;4.14;66.52
64886;BME280;51514;52.206;5.114;2023-04-05T05:17:51;102470.75;;;4.11;67.16
64886;BME280;51514;52.206;5.114;2023-04-05T05:20:17;102466.38;;;4.10;66.78
64886;BME280;51514;52.206;5.114;2023-04-05T05:22:43;102458.56;;;4.05;67.19
64886;BME280;51514;52.206;5.114;2023-04-05T05:25:10;102464.84;;;4.04;67.66
64886;BME280;51514;52.206;5.114;2023-04-05T05:27:36;102456.84;;;4.04;67.14
64886;BME280;51514;52.206;5.114;2023-04-05T05:30:02;102463.38;;;3.98;67.30
64886;BME280;51514;52.206;5.114;2023-04-05T05:32:27;102471.38;;;3.98;67.69
64886;BME280;51514;52.206;5.114;2023-04-05T05:34:53;102464.13;;;4.00;67.63
64886;BME280;51514;52.206;5.114;2023-04-05T05:37:21;102468.47;;;4.03;68.62
64886;BME280;51514;52.206;5.114;2023-04-05T05:39:53;102470.13;;;4.06;68.45
64886;BME280;51514;52.206;5.114;2023-04-05T05:42:18;102459.22;;;4.10;68.58
64886;BME280;51514;52.206;5.114;2023-04-05T05:44:45;102467.91;;;4.14;68.34
64886;BME280;51514;52.206;5.114;2023-04-05T05:47:10;102464.16;;;4.18;67.66
64886;BME280;51514;52.206;5.114;2023-04-05T05:49:35;102469.44;;;4.19;67.10
64886;BME280;51514;52.206;5.114;2023-04-05T05:52:02;102468.41;;;4.22;67.39
64886;BME280;51514;52.206;5.114;2023-04-05T05:54:27;102471.69;;;4.27;67.70
64886;BME280;51514;52.206;5.114;2023-04-05T05:56:53;102474.22;;;4.30;67.48
64886;BME280;51514;52.206;5.114;2023-04-05T05:59:18;102458.88;;;4.33;67.43
64886;BME280;51514;52.206;5.114;2023-04-05T06:01:44;102472.94;;;4.37;67.16
64886;BME280;51514;52.206;5.114;2023-04-05T06:04:11;102474.03;;;4.33;66.74
64886;BME280;51514;52.206;5.114;2023-04-05T06:06:36;102479.94;;;4.39;66.89
64886;BME280;51514;52.206;5.114;2023-04-05T06:09:02;102472.53;;;4.45;66.46
64886;BME280;51514;52.206;5.114;2023-04-05T06:11:27;102473.09;;;4.51;66.88
64886;BME280;51514;52.206;5.114;2023-04-05T06:13:52;102480.72;;;4.59;66.10
64886;BME280;51514;52.206;5.114;2023-04-05T06:16:21;102476.59;;;4.69;66.02
64886;BME280;51514;52.206;5.114;2023-04-05T06:18:47;102476.13;;;4.78;65.93
64886;BME280;51514;52.206;5.114;2023-04-05T06:21:13;102472.00;;;4.88;66.06
64886;BME280;51514;52.206;5.114;2023-04-05T06:23:42;102474.97;;;4.99;65.88
64886;BME280;51514;52.206;5.114;2023-04-05T06:26:07;102461.88;;;5.10;66.14
64886;BME280;51514;52.206;5.114;2023-04-05T06:28:33;102468.28;;;5.24;66.14
64886;BME280;51514;52.206;5.114;2023-04-05T06:30:58;102463.13;;;5.36;66.47
64886;BME280;51514;52.206;5.114;2023-04-05T06:33:24;102469.53;;;5.49;66.04
64886;BME280;51514;52.206;5.114;2023-04-05T06:35:50;102466.91;;;5.64;65.40
64886;BME280;51514;52.206;5.114;2023-04-05T06:38:15;102464.22;;;5.79;65.33
64886;BME280;51514;52.206;5.114;2023-04-05T06:40:41;102470.66;;;5.93;64.64
64886;BME280;51514;52.206;5.114;2023-04-05T06:43:07;102466.19;;;6.07;64.35
64886;BME280;51514;52.206;5.114;2023-04-05T06:45:32;102467.09;;;6.22;63.88
64886;BME280;51514;52.206;5.114;2023-04-05T06:47:57;102462.66;;;6.37;64.01
64886;BME280;51514;52.206;5.114;2023-04-05T06:50:23;102467.00;;;6.53;63.06
64886;BME280;51514;52.206;5.114;2023-04-05T06:52:48;102460.63;;;6.70;63.18
64886;BME280;51514;52.206;5.114;2023-04-05T06:55:13;102455.06;;;6.87;63.17
64886;BME280;51514;52.206;5.114;2023-04-05T06:57:39;102460.44;;;7.02;63.40
64886;BME280;51514;52.206;5.114;2023-04-05T07:00:04;102463.84;;;7.18;62.56
64886;BME280;51514;52.206;5.114;2023-04-05T07:02:36;102469.03;;;7.35;61.48
64886;BME280;51514;52.206;5.114;2023-04-05T07:05:02;102470.63;;;7.52;61.02
64886;BME280;51514;52.206;5.114;2023-04-05T07:07:33;102459.75;;;7.67;59.53
64886;BME280;51514;52.206;5.114;2023-04-05T07:09:58;102470.53;;;7.80;60.50
64886;BME280;51514;52.206;5.114;2023-04-05T07:12:23;102463.47;;;7.92;59.79
64886;BME280;51514;52.206;5.114;2023-04-05T07:14:49;102464.19;;;8.08;59.67
64886;BME280;51514;52.206;5.114;2023-04-05T07:17:14;102464.88;;;8.24;59.50
64886;BME280;51514;52.206;5.114;2023-04-05T07:19:40;102464.63;;;8.41;59.24
64886;BME280;51514;52.206;5.114;2023-04-05T07:22:05;102460.00;;;8.56;57.41
64886;BME280;51514;52.206;5.114;2023-04-05T07:24:30;102460.69;;;8.72;56.93
64886;BME280;51514;52.206;5.114;2023-04-05T07:26:56;102458.72;;;8.87;57.13
64886;BME280;51514;52.206;5.114;2023-04-05T07:29:22;102455.50;;;8.95;55.64
64886;BME280;51514;52.206;5.114;2023-04-05T07:31:47;102453.78;;;9.06;55.72
64886;BME280;51514;52.206;5.114;2023-04-05T07:34:12;102453.13;;;9.15;54.32
64886;BME280;51514;52.206;5.114;2023-04-05T07:36:38;102459.34;;;9.29;53.28
64886;BME280;51514;52.206;5.114;2023-04-05T07:39:03;102456.38;;;9.44;54.03
64886;BME280;51514;52.206;5.114;2023-04-05T07:41:29;102460.22;;;9.53;53.16
64886;BME280;51514;52.206;5.114;2023-04-05T07:44:00;102454.47;;;9.70;53.94
64886;BME280;51514;52.206;5.114;2023-04-05T07:46:25;102456.59;;;9.78;53.04
64886;BME280;51514;52.206;5.114;2023-04-05T07:48:51;102450.41;;;9.88;52.16
64886;BME280;51514;52.206;5.114;2023-04-05T07:51:17;102454.97;;;9.99;52.45
64886;BME280;51514;52.206;5.114;2023-04-05T07:53:42;102445.69;;;10.03;51.15
64886;BME280;51514;52.206;5.114;2023-04-05T07:56:09;102443.91;;;10.15;52.28
64886;BME280;51514;52.206;5.114;2023-04-05T07:58:35;102447.16;;;10.31;52.79
64886;BME280;51514;52.206;5.114;2023-04-05T08:01:06;102447.44;;;10.50;52.83
64886;BME280;51514;52.206;5.114;2023-04-05T08:03:32;102453.72;;;10.62;50.59
64886;BME280;51514;52.206;5.114;2023-04-05T08:06:11;102449.47;;;10.59;48.95
64886;BME280;51514;52.206;5.114;2023-04-05T08:08:37;102447.63;;;10.71;50.51
64886;BME280;51514;52.206;5.114;2023-04-05T08:11:03;102445.66;;;10.73;48.48
64886;BME280;51514;52.206;5.114;2023-04-05T08:13:28;102441.88;;;10.87;48.85
64886;BME280;51514;52.206;5.114;2023-04-05T08:15:56;102439.19;;;10.98;48.09
64886;BME280;51514;52.206;5.114;2023-04-05T08:18:22;102435.00;;;11.05;47.41
64886;BME280;51514;52.206;5.114;2023-04-05T08:20:52;102435.97;;;11.15;47.47
64886;BME280;51514;52.206;5.114;2023-04-05T08:23:17;102449.97;;;11.31;48.59
64886;BME280;51514;52.206;5.114;2023-04-05T08:25:43;102442.47;;;11.46;47.97
64886;BME280;51514;52.206;5.114;2023-04-05T08:28:08;102437.88;;;11.58;47.91
64886;BME280;51514;52.206;5.114;2023-04-05T08:30:34;102428.31;;;11.65;47.74
64886;BME280;51514;52.206;5.114;2023-04-05T08:32:59;102433.47;;;11.68;47.73
64886;BME280;51514;52.206;5.114;2023-04-05T08:35:25;102431.00;;;11.76;47.25
64886;BME280;51514;52.206;5.114;2023-04-05T08:37:50;102439.34;;;11.84;45.70
64886;BME280;51514;52.206;5.114;2023-04-05T08:40:15;102436.09;;;11.90;45.42
64886;BME280;51514;52.206;5.114;2023-04-05T08:42:45;102428.47;;;11.95;44.25
64886;BME280;51514;52.206;5.114;2023-04-05T08:45:16;102431.00;;;12.08;45.12
64886;BME280;51514;52.206;5.114;2023-04-05T08:47:43;102431.09;;;12.18;43.08
64886;BME280;51514;52.206;5.114;2023-04-05T08:50:10;102416.16;;;12.23;43.59
64886;BME280;51514;52.206;5.114;2023-04-05T08:52:38;102416.03;;;12.25;41.75
64886;BME280;51514;52.206;5.114;2023-04-05T08:55:07;102419.81;;;12.33;42.50
64886;BME280;51514;52.206;5.114;2023-04-05T08:57:36;102418.03;;;12.43;38.78
64886;BME280;51514;52.206;5.114;2023-04-05T09:00:02;102420.16;;;12.40;39.49
64886;BME280;51514;52.206;5.114;2023-04-05T09:02:28;102419.81;;;12.54;39.08
64886;BME280;51514;52.206;5.114;2023-04-05T09:04:55;102418.09;;;12.53;37.60
64886;BME280;51514;52.206;5.114;2023-04-05T09:07:20;102417.44;;;12.61;37.56
64886;BME280;51514;52.206;5.114;2023-04-05T09:09:49;102411.13;;;12.81;37.08
64886;BME280;51514;52.206;5.114;2023-04-05T09:12:19;102414.50;;;13.04;36.98
64886;BME280;51514;52.206;5.114;2023-04-05T09:14:46;102405.19;;;13.18;37.85
64886;BME280;51514;52.206;5.114;2023-04-05T09:17:16;102418.19;;;13.33;35.25
64886;BME280;51514;52.206;5.114;2023-04-05T09:19:41;102412.94;;;13.41;34.72
64886;BME280;51514;52.206;5.114;2023-04-05T09:22:08;102406.09;;;13.37;34.73
64886;BME280;51514;52.206;5.114;2023-04-05T09:24:35;102412.09;;;13.41;36.97
64886;BME280;51514;52.206;5.114;2023-04-05T09:27:05;102416.38;;;13.53;37.05
64886;BME280;51514;52.206;5.114;2023-04-05T09:29:32;102404.44;;;13.75;37.07
64886;BME280;51514;52.206;5.114;2023-04-05T09:31:57;102397.31;;;13.93;36.94
64886;BME280;51514;52.206;5.114;2023-04-05T09:34:24;102405.00;;;14.07;36.42
64886;BME280;51514;52.206;5.114;2023-04-05T09:36:50;102394.72;;;14.20;35.47
64886;BME280;51514;52.206;5.114;2023-04-05T09:39:16;102393.00;;;14.19;36.46
64886;BME280;51514;52.206;5.114;2023-04-05T09:47:17;102394.41;;;14.52;35.24
64886;BME280;51514;52.206;5.114;2023-04-05T09:49:43;102387.56;;;14.58;35.83
64886;BME280;51514;52.206;5.114;2023-04-05T09:52:25;102395.84;;;14.56;38.77
64886;BME280;51514;52.206;5.114;2023-04-05T09:54:55;102389.38;;;14.67;36.02
64886;BME280;51514;52.206;5.114;2023-04-05T09:57:25;102398.47;;;14.85;35.91
64886;BME280;51514;52.206;5.114;2023-04-05T09:59:54;102386.19;;;14.81;35.29
64886;BME280;51514;52.206;5.114;2023-04-05T10:02:21;102381.19;;;14.77;35.29
64886;BME280;51514;52.206;5.114;2023-04-05T10:04:47;102380.63;;;14.73;35.51
64886;BME280;51514;52.206;5.114;2023-04-05T10:07:14;102376.63;;;14.77;33.76
64886;BME280;51514;52.206;5.114;2023-04-05T10:09:42;102377.34;;;14.79;33.40
64886;BME280;51514;52.206;5.114;2023-04-05T10:12:09;102375.16;;;14.92;34.57
64886;BME280;51514;52.206;5.114;2023-04-05T10:14:37;102379.06;;;15.08;33.31
64886;BME280;51514;52.206;5.114;2023-04-05T10:17:15;102372.47;;;15.10;31.87
64886;BME280;51514;52.206;5.114;2023-04-05T10:19:57;102367.84;;;15.20;33.93
64886;BME280;51514;52.206;5.114;2023-04-05T10:28:13;102351.50;;;15.48;34.14
64886;BME280;51514;52.206;5.114;2023-04-05T10:30:50;102353.72;;;15.62;33.79
64886;BME280;51514;52.206;5.114;2023-04-05T10:33:20;102347.28;;;15.63;34.10
64886;BME280;51514;52.206;5.114;2023-04-05T10:36:01;102352.84;;;15.61;34.90
64886;BME280;51514;52.206;5.114;2023-04-05T10:38:29;102351.78;;;15.72;33.90
64886;BME280;51514;52.206;5.114;2023-04-05T10:41:11;102351.16;;;15.78;34.04
64886;BME280;51514;52.206;5.114;2023-04-05T10:43:39;102344.22;;;15.84;34.32
64886;BME280;51514;52.206;5.114;2023-04-05T10:46:07;102345.31;;;15.91;34.14
64886;BME280;51514;52.206;5.114;2023-04-05T10:48:36;102340.75;;;15.74;31.57
64886;BME280;51514;52.206;5.114;2023-04-05T10:51:04;102334.00;;;15.78;34.04
64886;BME280;51514;52.206;5.114;2023-04-05T10:53:30;102338.25;;;15.80;34.05
64886;BME280;51514;52.206;5.114;2023-04-05T10:56:00;102336.47;;;15.89;34.27
64886;BME280;51514;52.206;5.114;2023-04-05T10:58:26;102328.06;;;16.00;34.11
64886;BME280;51514;52.206;5.114;2023-04-05T11:00:53;102327.56;;;16.04;33.90
64886;BME280;51514;52.206;5.114;2023-04-05T11:08:56;102330.84;;;16.08;32.55
64886;BME280;51514;52.206;5.114;2023-04-05T11:11:23;102322.38;;;16.11;33.27
64886;BME280;51514;52.206;5.114;2023-04-05T11:13:53;102318.44;;;16.14;33.20
64886;BME280;51514;52.206;5.114;2023-04-05T11:16:20;102322.31;;;16.29;33.79
64886;BME280;51514;52.206;5.114;2023-04-05T11:18:47;102315.91;;;16.38;33.46
64886;BME280;51514;52.206;5.114;2023-04-05T11:21:24;102311.63;;;16.35;32.20
64886;BME280;51514;52.206;5.114;2023-04-05T11:24:09;102307.72;;;16.38;33.24
64886;BME280;51514;52.206;5.114;2023-04-05T11:29:04;102316.59;;;16.40;33.77
64886;BME280;51514;52.206;5.114;2023-04-05T11:31:29;102309.16;;;16.24;32.59
64886;BME280;51514;52.206;5.114;2023-04-05T11:34:06;102304.06;;;16.21;32.32
64886;BME280;51514;52.206;5.114;2023-04-05T11:36:37;102297.44;;;15.98;33.38
64886;BME280;51514;52.206;5.114;2023-04-05T11:44:15;102288.78;;;15.77;32.87
64886;BME280;51514;52.206;5.114;2023-04-05T11:46:42;102294.22;;;15.77;31.86
64886;BME280;51514;52.206;5.114;2023-04-05T11:49:07;102294.22;;;15.77;33.03
64886;BME280;51514;52.206;5.114;2023-04-05T11:51:32;102281.94;;;15.55;32.12
64886;BME280;51514;52.206;5.114;2023-04-05T11:53:58;102276.22;;;15.48;31.51
64886;BME280;51514;52.206;5.114;2023-04-05T11:56:23;102281.91;;;15.37;33.40
64886;BME280;51514;52.206;5.114;2023-04-05T11:58:48;102279.66;;;15.32;32.58
64886;BME280;51514;52.206;5.114;2023-04-05T12:01:14;102280.13;;;15.28;31.44
64886;BME280;51514;52.206;5.114;2023-04-05T12:03:39;102276.88;;;15.24;31.49
64886;BME280;51514;52.206;5.114;2023-04-05T12:06:05;102260.72;;;15.23;32.46
64886;BME280;51514;52.206;5.114;2023-04-05T12:08:38;102271.25;;;15.26;32.23
64886;BME280;51514;52.206;5.114;2023-04-05T12:11:07;102261.94;;;15.28;33.82
64886;BME280;51514;52.206;5.114;2023-04-05T12:13:33;102251.06;;;15.28;33.01
64886;BME280;51514;52.206;5.114;2023-04-05T12:16:04;102263.88;;;15.36;34.20
64886;BME280;51514;52.206;5.114;2023-04-05T12:18:31;102263.44;;;15.41;34.09
64886;BME280;51514;52.206;5.114;2023-04-05T12:20:57;102258.22;;;15.47;33.71
64886;BME280;51514;52.206;5.114;2023-04-05T12:23:24;102248.53;;;15.45;33.72
64886;BME280;51514;52.206;5.114;2023-04-05T12:25:50;102255.19;;;15.50;33.16
64886;BME280;51514;52.206;5.114;2023-04-05T12:28:16;102252.81;;;15.65;32.91
64886;BME280;51514;52.206;5.114;2023-04-05T12:33:14;102252.56;;;15.76;32.45
64886;BME280;51514;52.206;5.114;2023-04-05T12:35:40;102246.97;;;15.78;32.24
64886;BME280;51514;52.206;5.114;2023-04-05T12:38:06;102243.13;;;15.88;32.14
64886;BME280;51514;52.206;5.114;2023-04-05T12:40:34;102241.25;;;15.89;32.52
64886;BME280;51514;52.206;5.114;2023-04-05T12:43:04;102242.91;;;15.82;33.17
64886;BME280;51514;52.206;5.114;2023-04-05T12:45:30;102242.59;;;15.85;32.47
64886;BME280;51514;52.206;5.114;2023-04-05T12:48:07;102236.28;;;15.84;32.41
64886;BME280;51514;52.206;5.114;2023-04-05T12:50:32;102235.47;;;15.66;31.56
64886;BME280;51514;52.206;5.114;2023-04-05T12:53:00;102231.81;;;15.75;33.05
64886;BME280;51514;52.206;5.114;2023-04-05T12:55:29;102230.94;;;15.75;32.61
64886;BME280;51514;52.206;5.114;2023-04-05T12:57:58;102224.09;;;15.70;32.95
64886;BME280;51514;52.206;5.114;2023-04-05T13:00:25;102220.38;;;15.72;32.78
64886;BME280;51514;52.206;5.114;2023-04-05T13:02:52;102217.03;;;15.78;32.85
64886;BME280;51514;52.206;5.114;2023-04-05T13:05:20;102217.72;;;15.80;33.15
64886;BME280;51514;52.206;5.114;2023-04-05T13:07:46;102225.94;;;15.88;33.66
64886;BME280;51514;52.206;5.114;2023-04-05T13:10:11;102216.25;;;15.85;32.75
64886;BME280;51514;52.206;5.114;2023-04-05T13:12:37;102212.63;;;15.77;32.87
64886;BME280;51514;52.206;5.114;2023-04-05T13:15:02;102212.63;;;15.77;33.09
64886;BME280;51514;52.206;5.114;2023-04-05T13:17:28;102206.94;;;15.70;33.67
64886;BME280;51514;52.206;5.114;2023-04-05T13:19:53;102199.97;;;15.67;33.49
64886;BME280;51514;52.206;5.114;2023-04-05T13:22:18;102191.38;;;15.54;32.90
64886;BME280;51514;52.206;5.114;2023-04-05T13:24:44;102191.59;;;15.43;34.06
64886;BME280;51514;52.206;5.114;2023-04-05T13:27:09;102189.59;;;15.45;34.26
64886;BME280;51514;52.206;5.114;2023-04-05T13:29:34;102190.25;;;15.47;33.79
64886;BME280;51514;52.206;5.114;2023-04-05T13:31:59;102187.78;;;15.36;33.37
64886;BME280;51514;52.206;5.114;2023-04-05T13:34:25;102186.63;;;15.39;33.64